Fredonia, AZ (86052)

1:06 AM MST on July 06, 2015 (GMT -0700)
RAWS | | Change Station
CLOSE
Current Station
Personal Weather Station
Location: Canyon Point, UT
Elevation: 4925 ft
Nearby Weather Stations

Elev 4925 ft 37.04 °N, 112.52 °W | Updated 29 minutes ago

Partly Cloudy
Partly Cloudy
73 °F
Feels Like 77 °F
N
3
Wind Variable Wind from SW
Gusts 9.0 mph

Today
High -- | Low -- °F
--% Chance of Precip.
Yesterday
High -- | Low -- °F
Precip. -- in
5:16 AM 7:52 PM
Waning Gibbous, 77% visible
Pressure 30.18 in
Visibility 10.0 miles
Clouds Overcast 12000 ft
Heat Index 77 °F
Dew Point 49 °F
Humidity 42%
Rainfall in
Snow Depth Not available.
UV 0 out of 12
Pollen 3.10 out of 12
Air Quality Not available.
Flu Activity Not available.
METAR KAZC 060755Z AUTO 16005KT 10SM OVC120 20/13 A3018 RMK AO2 T02000133

More Conditions Fewer Conditions

Pressure 30.18 in
Visibility 10.0 miles
Clouds Overcast 12000 ft
Heat Index 77 °F
Dew Point 49 °F
Humidity 42%
Rainfall in
Snow Depth Not available.
UV 0 out of 12
Pollen 3.10 out of 12
Air Quality Not available.
Flu Activity Not available.
METAR KAZC 060755Z AUTO 16005KT 10SM OVC120 20/13 A3018 RMK AO2 T02000133

More Conditions Fewer Conditions

10-Day Weather Forecast

×

Almanac

Astronomy

Jul. 06, 2015 Rise Set
Actual Time
Civil Twilight
Nautical Twilight
Astronomical Twilight
Moon
Length of Visible Light
Length of Day
Tomorrow will be .
, % of the Moon is Illuminated

Today's Extremes

State Highs State Lows

Community

WunderPhotos

Upload Photos

1,835,508 photos uploaded!

WunderBlogs® & News

Nearby

Air Quality

  Air Quality AQ Index Pollutant
Not available.

Snow Depth

Station Depth Elevation

Earthquake Activity

City Distance Mag. Time & Date
Minimum magnitude displayed is 2.5.

Coastal Water Temperatures

Place Temperature

Stations

Nearby Weather Stations

Station Location Temp. Windchill Dew Point Humidity Wind Precip. Elev Updated Type